Time;durP1;ratioP1;P1;durP2;ratioP2;P2;SDS_P1;SDS_P2;PMS_P1;PMS_P2;Temp;Humidity;BMP_temperature;BMP_pressure;BME280_temperature;BME280_humidity;BME280_pressure;Samples;Min_cycle;Max_cycle;Signal;HPM_P1;HPM_P2
2022/01/11 00:01:18;;;;;;;11.95;3.30;;;;;;;25.90;30.56;97681.34;4959476;28;20038;-29
2022/01/11 00:03:43;;;;;;;7.80;3.47;;;;;;;25.90;30.68;97672.63;4959324;28;20039;-31
2022/01/11 00:06:29;;;;;;;6.75;3.20;;;;;;;25.90;30.57;97676.09;4958925;28;20062;-32
2022/01/11 00:08:59;;;;;;;6.95;3.25;;;;;;;25.91;30.63;97674.34;4960298;28;20508;-33
2022/01/11 00:11:25;;;;;;;7.45;3.20;;;;;;;25.91;30.53;97671.72;4965339;28;20038;-28
2022/01/11 00:13:50;;;;;;;6.88;2.95;;;;;;;25.90;30.50;97664.75;4961307;28;20093;-29
2022/01/11 00:16:16;;;;;;;9.50;3.33;;;;;;;25.90;30.67;97670.84;4959221;28;20026;-30
2022/01/11 00:18:41;;;;;;;7.55;3.30;;;;;;;25.91;30.58;97671.72;4957503;28;20476;-31
2022/01/11 00:21:07;;;;;;;6.88;3.10;;;;;;;25.91;30.64;97671.72;4959770;28;20018;-31
2022/01/11 00:25:58;;;;;;;7.63;3.05;;;;;;;25.90;30.46;97670.84;4961488;28;20029;-32
2022/01/11 00:28:25;;;;;;;6.72;2.90;;;;;;;25.91;30.67;97671.72;4967298;28;20492;-30
2022/01/11 00:30:51;;;;;;;6.10;3.08;;;;;;;25.91;30.51;97671.72;4965359;28;20030;-31
2022/01/11 00:33:20;;;;;;;6.35;2.70;;;;;;;25.91;30.57;97671.72;4961261;28;20088;-30
2022/01/11 00:35:57;;;;;;;5.75;2.85;;;;;;;25.90;30.51;97676.09;4964975;28;20113;-29
2022/01/11 00:38:22;;;;;;;4.43;2.80;;;;;;;25.90;30.59;97672.63;4965533;28;20022;-31
2022/01/11 00:40:52;;;;;;;8.95;3.08;;;;;;;25.90;30.66;97680.50;4961419;28;20053;-29
2022/01/11 00:43:19;;;;;;;8.15;2.83;;;;;;;25.89;30.55;97678.81;4969082;28;20077;-30
2022/01/11 00:45:45;;;;;;;5.68;3.00;;;;;;;25.89;30.65;97679.63;4966369;28;20034;-32
2022/01/11 00:48:10;;;;;;;5.78;2.88;;;;;;;25.90;30.65;97683.13;4964664;28;20763;-31
2022/01/11 00:50:39;;;;;;;5.07;3.00;;;;;;;25.90;30.65;97675.25;4959957;28;20158;-30
2022/01/11 00:53:05;;;;;;;5.05;2.63;;;;;;;25.87;30.64;97675.38;4963177;28;20506;-29
2022/01/11 00:55:30;;;;;;;5.00;2.63;;;;;;;25.89;30.61;97673.56;4950374;28;21167;-32
2022/01/11 00:57:56;;;;;;;5.00;2.53;;;;;;;25.88;30.75;97680.56;4963561;28;20046;-37
2022/01/11 01:00:22;;;;;;;6.53;2.72;;;;;;;25.89;30.70;97681.44;4960476;28;20026;-31
2022/01/11 01:02:47;;;;;;;4.53;2.55;;;;;;;25.89;30.57;97670.94;4964695;28;20101;-30
2022/01/11 01:05:17;;;;;;;4.65;2.50;;;;;;;25.88;30.73;97670.06;4964018;28;20037;-28
2022/01/11 01:07:42;;;;;;;5.18;2.63;;;;;;;25.87;30.64;97670.13;4972823;28;20034;-30
2022/01/11 01:10:16;;;;;;;4.53;2.60;;;;;;;25.88;30.70;97671.81;4963877;28;20113;-29
2022/01/11 01:12:41;;;;;;;4.10;2.28;;;;;;;25.88;30.66;97669.19;4963609;28;20034;-30
2022/01/11 01:15:07;;;;;;;4.88;2.40;;;;;;;25.88;30.66;97677.06;4964413;28;20057;-35
2022/01/11 01:17:32;;;;;;;4.72;2.22;;;;;;;25.88;30.70;97674.44;4945254;28;20177;-29
2022/01/11 01:19:58;;;;;;;6.55;2.65;;;;;;;25.87;30.56;97686.75;4963147;28;20026;-29
2022/01/11 01:22:23;;;;;;;4.47;2.08;;;;;;;25.87;30.53;97685.88;4962847;28;20034;-29
2022/01/11 01:24:49;;;;;;;5.82;2.47;;;;;;;25.86;30.36;97682.41;4960289;28;20947;-30
2022/01/11 01:27:14;;;;;;;4.50;2.20;;;;;;;25.88;30.64;97687.56;4964142;28;20057;-29
2022/01/11 01:29:41;;;;;;;4.60;2.65;;;;;;;25.87;30.47;97688.50;4964880;28;20034;-30
2022/01/11 01:32:07;;;;;;;4.32;2.28;;;;;;;25.87;30.59;97691.13;4958804;28;20030;-32
2022/01/11 01:34:33;;;;;;;6.28;2.70;;;;;;;25.87;30.56;97685.88;4967503;28;20030;-31
2022/01/11 01:36:58;;;;;;;5.57;2.90;;;;;;;25.87;30.72;97688.50;4962927;28;20073;-29
2022/01/11 01:39:25;;;;;;;4.55;2.50;;;;;;;25.85;30.70;97690.34;4961066;28;20045;-30
2022/01/11 01:41:51;;;;;;;4.72;2.22;;;;;;;25.85;30.52;97693.81;4957812;28;20564;-34
2022/01/11 01:44:16;;;;;;;4.70;2.38;;;;;;;25.86;30.46;97698.16;4962836;28;20030;-31
2022/01/11 01:46:42;;;;;;;5.25;2.40;;;;;;;25.86;30.60;97699.91;4963233;28;20034;-30
2022/01/11 01:49:09;;;;;;;3.97;2.25;;;;;;;25.86;30.65;97694.66;4958276;28;20034;-30
2022/01/11 01:51:35;;;;;;;6.88;2.33;;;;;;;25.86;30.50;97700.78;4961985;28;20812;-35
2022/01/11 01:54:00;;;;;;;3.55;2.22;;;;;;;25.86;30.65;97699.91;4958516;28;20042;-31
2022/01/11 01:56:26;;;;;;;4.60;2.17;;;;;;;25.86;30.54;97699.91;4961995;28;20036;-34
2022/01/11 01:58:51;;;;;;;3.95;2.10;;;;;;;25.85;30.67;97699.06;4962407;28;20026;-30
2022/01/11 02:01:17;;;;;;;4.95;2.20;;;;;;;25.85;30.71;97704.31;4963664;28;20034;-31
2022/01/11 02:03:43;;;;;;;5.68;2.13;;;;;;;25.79;30.56;97694.06;4962380;28;20034;-35
2022/01/11 02:06:13;;;;;;;4.78;2.08;;;;;;;25.84;30.69;97702.59;4964493;28;21015;-30
2022/01/11 02:08:39;;;;;;;3.92;2.17;;;;;;;25.86;30.59;97707.81;4962204;28;20034;-31
2022/01/11 02:11:05;;;;;;;4.70;2.10;;;;;;;25.85;30.64;97706.09;4962088;28;20034;-31
2022/01/11 02:13:30;;;;;;;4.10;2.28;;;;;;;25.86;30.51;97702.53;4963157;28;20055;-32
2022/01/11 02:15:57;;;;;;;3.78;2.03;;;;;;;25.85;30.62;97708.72;4963360;28;20158;-33
2022/01/11 02:18:24;;;;;;;3.42;2.20;;;;;;;25.85;30.62;97703.47;4962918;28;20170;-31
2022/01/11 02:20:50;;;;;;;4.03;2.00;;;;;;;25.86;30.67;97715.69;4960868;28;20027;-29
2022/01/11 02:23:19;;;;;;;3.83;2.30;;;;;;;25.85;30.69;97711.34;4962333;28;20030;-33
2022/01/11 02:25:44;;;;;;;3.53;2.05;;;;;;;25.83;30.69;97707.00;4962722;28;20433;-32
2022/01/11 02:28:15;;;;;;;4.70;2.15;;;;;;;25.83;30.72;97704.34;4964199;28;22669;-32
2022/01/11 02:30:41;;;;;;;3.65;2.20;;;;;;;25.83;30.71;97712.25;4961011;28;20713;-34
2022/01/11 02:33:13;;;;;;;3.80;1.80;;;;;;;25.83;30.64;97717.50;4962680;28;20117;-31
2022/01/11 02:35:39;;;;;;;3.05;1.75;;;;;;;25.85;30.66;97719.22;4961928;28;20045;-33
2022/01/11 02:38:04;;;;;;;4.20;2.33;;;;;;;25.83;30.56;97716.66;4964095;28;20035;-29
2022/01/11 02:40:29;;;;;;;3.85;1.85;;;;;;;25.83;30.71;97719.28;4962980;28;20763;-29
2022/01/11 02:42:55;;;;;;;3.63;1.88;;;;;;;25.82;30.59;97723.66;4967319;28;20493;-29
2022/01/11 02:45:21;;;;;;;6.03;2.20;;;;;;;25.81;30.54;97711.47;4963665;28;20035;-31
2022/01/11 02:47:47;;;;;;;2.92;1.67;;;;;;;25.81;30.77;97714.09;4963380;28;20077;-29
2022/01/11 02:50:13;;;;;;;4.10;2.45;;;;;;;25.81;30.71;97714.09;4962434;28;22839;-35
2022/01/11 02:52:38;;;;;;;27.48;3.63;;;;;;;25.79;30.32;97715.06;4960103;28;20091;-30
2022/01/11 02:55:07;;;;;;;3.47;2.15;;;;;;;25.78;30.57;97719.44;4959238;28;20038;-33
2022/01/11 02:57:33;;;;;;;9.82;2.30;;;;;;;25.77;30.55;97716.88;4961882;28;20033;-32
2022/01/11 02:59:58;;;;;;;4.40;2.08;;;;;;;25.77;30.57;97717.75;4960985;28;20026;-29
2022/01/11 03:02:24;;;;;;;3.17;2.00;;;;;;;25.77;30.64;97715.13;4962764;28;20780;-29
2022/01/11 03:04:49;;;;;;;4.60;1.90;;;;;;;25.76;30.53;97709.91;4961754;28;20034;-32
2022/01/11 03:07:21;;;;;;;3.50;2.08;;;;;;;25.76;30.58;97705.53;4968292;28;20484;-30
2022/01/11 03:10:01;;;;;;;3.53;2.10;;;;;;;25.76;30.67;97705.53;4968090;28;20026;-32
2022/01/11 03:12:26;;;;;;;3.47;2.15;;;;;;;25.76;30.63;97709.91;4960936;28;20109;-29
2022/01/11 03:14:52;;;;;;;5.63;2.00;;;;;;;25.75;30.71;97701.19;4961887;28;20034;-29
2022/01/11 03:17:17;;;;;;;6.43;1.60;;;;;;;25.76;30.65;97709.91;4963518;28;20038;-29
2022/01/11 03:19:43;;;;;;;3.13;2.00;;;;;;;25.75;30.62;97710.84;4942725;28;20061;-37
2022/01/11 03:22:08;;;;;;;3.33;2.03;;;;;;;25.76;30.69;97712.53;4964725;28;20037;-30
2022/01/11 03:24:33;;;;;;;5.90;1.88;;;;;;;25.75;30.61;97714.34;4961590;28;20030;-30
2022/01/11 03:26:59;;;;;;;2.50;1.80;;;;;;;25.75;30.63;97709.09;4963146;28;20895;-31
2022/01/11 03:29:24;;;;;;;3.92;1.67;;;;;;;25.75;30.82;97714.34;4960115;28;20057;-30
2022/01/11 03:31:50;;;;;;;3.10;1.92;;;;;;;25.75;30.71;97709.09;4961063;28;20100;-28
2022/01/11 03:34:19;;;;;;;3.85;1.90;;;;;;;25.75;30.62;97718.72;4961239;28;20089;-37
2022/01/11 03:36:47;;;;;;;2.22;1.60;;;;;;;25.75;30.78;97714.34;4963117;28;20046;-29
2022/01/11 03:39:12;;;;;;;5.18;1.88;;;;;;;25.75;30.68;97718.72;4961293;28;20110;-32
2022/01/11 03:41:37;;;;;;;2.80;1.80;;;;;;;25.75;30.67;97719.59;4959888;28;20084;-33
2022/01/11 03:44:03;;;;;;;2.13;1.70;;;;;;;25.75;30.59;97724.84;4958745;28;20053;-31
2022/01/11 03:46:29;;;;;;;3.70;1.88;;;;;;;25.75;30.75;97722.22;4960813;28;20100;-31
2022/01/11 03:58:43;;;;;;;2.05;1.60;;;;;;;25.73;30.69;97725.81;4866904;28;20043;-28
2022/01/11 04:01:29;;;;;;;2.35;1.55;;;;;;;25.72;30.73;97727.56;4941439;28;20047;-28
2022/01/11 04:04:26;;;;;;;2.33;1.67;;;;;;;25.72;30.63;97730.19;4956808;28;20358;-27
2022/01/11 04:07:00;;;;;;;2.65;1.52;;;;;;;25.72;30.75;97731.94;4872266;29;20056;-32
2022/01/11 04:09:58;;;;;;;1.80;1.40;;;;;;;25.71;30.61;97733.75;4956805;28;20501;-30
2022/01/11 04:12:29;;;;;;;3.20;1.70;;;;;;;25.71;30.72;97728.47;4947808;28;20661;-28
2022/01/11 04:15:00;;;;;;;3.28;1.42;;;;;;;25.70;30.86;97729.38;4957054;28;20053;-29
2022/01/11 04:17:34;;;;;;;3.75;1.70;;;;;;;25.70;30.79;97739.88;4957872;28;20043;-30
2022/01/11 04:20:22;;;;;;;3.50;2.00;;;;;;;25.67;30.78;97727.72;4960433;28;20146;-28
2022/01/11 04:23:19;;;;;;;2.33;1.52;;;;;;;25.69;30.82;97732.91;4956732;28;20070;-29
2022/01/11 04:26:02;;;;;;;3.03;1.60;;;;;;;25.67;30.69;97727.72;4943745;28;23469;-28
2022/01/11 04:28:58;;;;;;;3.28;1.92;;;;;;;25.68;30.72;97729.47;4960133;28;20030;-31
2022/01/11 04:31:26;;;;;;;5.35;1.35;;;;;;;25.68;30.85;97728.59;4962242;28;20034;-27
2022/01/11 04:34:15;;;;;;;5.63;1.70;;;;;;;25.67;30.78;97738.22;4963331;28;20050;-29
2022/01/11 04:37:12;;;;;;;3.22;1.88;;;;;;;25.68;30.65;97739.97;4956390;28;20073;-28
2022/01/11 04:39:52;;;;;;;3.00;1.52;;;;;;;25.67;30.68;97742.63;4960760;28;20038;-30
2022/01/11 04:42:43;;;;;;;3.10;1.60;;;;;;;25.67;30.76;97747.88;4957679;28;20030;-28
2022/01/11 04:45:47;;;;;;;3.53;1.60;;;;;;;25.67;30.79;97750.50;4923444;28;20386;-29
2022/01/11 04:48:18;;;;;;;3.53;1.77;;;;;;;25.67;30.66;97743.47;4956395;28;20043;-29
2022/01/11 04:51:01;;;;;;;2.70;1.65;;;;;;;25.66;30.76;97748.81;4959679;28;20066;-25
2022/01/11 04:53:29;;;;;;;2.88;1.60;;;;;;;25.65;30.75;97742.69;4935497;28;20057;-30
2022/01/11 04:59:00;;;;;;;3.22;1.48;;;;;;;25.65;30.62;97754.94;4956540;28;20104;-30
2022/01/11 05:01:35;;;;;;;1.67;1.30;;;;;;;25.65;30.83;97754.94;4957337;28;20141;-30
2022/01/11 05:07:22;;;;;;;2.40;1.50;;;;;;;25.64;30.76;97767.25;4927407;28;20503;-27
2022/01/11 05:09:53;;;;;;;2.35;1.60;;;;;;;25.62;30.71;97760.34;4959298;28;20045;-34
2022/01/11 05:12:54;;;;;;;2.10;1.40;;;;;;;25.63;30.74;97767.28;4960153;28;20418;-28
2022/01/11 05:15:35;;;;;;;2.78;1.65;;;;;;;25.63;30.76;97764.66;4956021;28;20046;-28
2022/01/11 05:18:26;;;;;;;3.05;1.55;;;;;;;25.64;30.63;97763.75;4957343;28;20209;-36
2022/01/11 05:21:00;;;;;;;2.92;1.48;;;;;;;25.63;30.74;97760.25;4947815;28;20034;-29
2022/01/11 05:23:31;;;;;;;2.10;1.45;;;;;;;25.63;30.74;97767.28;4952524;28;20057;-28
2022/01/11 05:26:02;;;;;;;3.88;1.60;;;;;;;25.63;30.65;97764.66;4933977;28;20080;-29
2022/01/11 05:28:34;;;;;;;;;;;;;;;25.63;30.68;97764.66;4954990;28;20050;-29
2022/01/11 05:31:18;;;;;;;2.05;1.48;;;;;;;25.63;30.76;97772.53;4958085;28;19922;-27
2022/01/11 05:34:17;;;;;;;1.77;1.40;;;;;;;25.62;30.75;97770.84;4960218;28;20677;-28
2022/01/11 05:36:48;;;;;;;2.42;1.73;;;;;;;25.61;30.72;97769.09;4950936;28;20944;-30
2022/01/11 05:39:31;;;;;;;2.03;1.60;;;;;;;25.61;30.72;97774.34;4957313;28;20140;-30
2022/01/11 05:42:06;;;;;;;2.38;1.73;;;;;;;25.60;30.63;97778.75;4956290;28;20030;-30
2022/01/11 05:44:31;;;;;;;2.25;1.58;;;;;;;25.60;30.69;97783.13;4939914;28;20078;-31
2022/01/11 05:47:08;;;;;;;2.40;1.67;;;;;;;25.60;30.77;97780.50;4958669;28;20023;-30
2022/01/11 05:50:06;;;;;;;1.65;1.30;;;;;;;25.59;30.90;97782.28;4956533;28;20022;-29
2022/01/11 05:52:54;;;;;;;1.65;1.33;;;;;;;25.60;30.75;97786.63;4940210;28;20054;-30
2022/01/11 05:55:31;;;;;;;2.30;1.27;;;;;;;25.59;30.73;97791.94;4961766;28;20038;-31
2022/01/11 05:58:08;;;;;;;2.22;1.40;;;;;;;25.57;30.85;97795.47;4957385;28;20034;-28
2022/01/11 06:00:36;;;;;;;5.40;1.80;;;;;;;25.59;30.83;97800.66;4953014;28;20042;-28
2022/01/11 06:06:21;;;;;;;2.90;1.42;;;;;;;25.57;30.92;97813.84;4938843;28;20046;-28
2022/01/11 06:09:14;;;;;;;1.63;1.30;;;;;;;25.57;30.78;97808.59;4954684;28;20068;-29
2022/01/11 06:15:02;;;;;;;2.63;1.70;;;;;;;25.58;30.87;97817.31;4952571;28;20133;-26
2022/01/11 06:17:39;;;;;;;4.82;3.10;;;;;;;25.57;30.76;97826.97;4955487;28;20027;-29
2022/01/11 06:20:27;;;;;;;3.45;1.90;;;;;;;25.55;30.78;97826.13;4958388;28;20114;-30
2022/01/11 06:23:24;;;;;;;4.07;1.90;;;;;;;25.55;30.69;97823.50;4956031;28;20871;-30
2022/01/11 06:25:55;;;;;;;4.68;1.73;;;;;;;25.55;30.78;97820.88;4923043;28;20112;-29
2022/01/11 06:28:23;;;;;;;1.80;1.58;;;;;;;25.56;30.79;97835.75;4954414;28;20038;-33
2022/01/11 06:31:36;;;;;;;4.40;1.70;;;;;;;25.56;30.83;97824.41;4955891;28;20031;-32
2022/01/11 06:34:19;;;;;;;3.15;1.95;;;;;;;25.55;30.86;97823.50;4957379;28;20038;-29
2022/01/11 06:36:59;;;;;;;2.58;1.80;;;;;;;25.56;30.85;97838.38;4957854;28;20063;-29
2022/01/11 06:39:36;;;;;;;5.07;2.10;;;;;;;25.57;30.75;97836.59;4956282;28;20026;-31
2022/01/11 06:42:13;;;;;;;3.95;1.73;;;;;;;25.56;30.73;97835.75;4952563;28;20416;-29
2022/01/11 06:44:44;;;;;;;3.25;1.73;;;;;;;25.56;30.88;97841.00;4959486;28;20119;-30
2022/01/11 06:47:47;;;;;;;2.83;1.98;;;;;;;25.56;30.73;97837.53;4961115;28;20093;-29
2022/01/11 06:50:24;;;;;;;3.10;1.38;;;;;;;25.56;30.75;97841.00;4944323;28;20697;-31
2022/01/11 06:56:03;;;;;;;3.88;1.90;;;;;;;25.56;30.70;97843.63;4939095;28;20572;-30
2022/01/11 06:58:56;;;;;;;2.22;1.90;;;;;;;25.56;30.82;97854.09;4957121;28;20038;-30
2022/01/11 07:01:24;;;;;;;2.80;1.80;;;;;;;25.58;30.90;97856.69;4944481;28;20499;-29
2022/01/11 07:04:19;;;;;;;3.17;2.00;;;;;;;25.57;30.76;97853.22;4956367;28;20961;-32
2022/01/11 07:07:06;;;;;;;3.47;2.05;;;;;;;25.57;30.77;97853.22;4950207;28;20046;-30
2022/01/11 07:10:00;;;;;;;2.47;1.63;;;;;;;25.57;30.66;97858.47;4954272;28;20042;-31
2022/01/11 07:16:43;;;;;;;2.70;1.63;;;;;;;25.59;30.73;97865.44;4873528;29;20044;-31
2022/01/11 07:19:37;;;;;;;2.35;1.60;;;;;;;25.59;30.68;97865.44;4945385;28;20054;-29
2022/01/11 07:22:18;;;;;;;1.88;1.40;;;;;;;25.61;30.68;97874.09;4943340;28;20042;-31
2022/01/11 07:25:59;;;;;;;4.07;1.60;;;;;;;25.59;30.73;97874.13;4946035;28;20553;-28
2022/01/11 07:28:18;;;;;;;;;;;;;;;;;;;;;
2022/01/11 07:34:53;;;;;;;3.53;2.08;;;;;;;25.59;30.71;97879.38;4943274;28;20047;-28
2022/01/11 07:43:45;;;;;;;19.65;7.13;;;;;;;25.59;30.31;97889.06;4883705;29;20045;-30
2022/01/11 07:52:59;;;;;;;26.65;9.25;;;;;;;25.47;28.70;97899.03;4844866;29;21032;-29
2022/01/11 07:55:38;;;;;;;14.20;8.52;;;;;;;25.43;28.35;97900.03;4889389;28;20101;-31
2022/01/11 07:58:35;;;;;;;14.98;8.90;;;;;;;25.39;28.06;97903.66;4927932;28;20058;-34
2022/01/11 08:01:12;;;;;;;15.80;9.02;;;;;;;25.35;28.18;97899.47;4926929;28;20035;-31
2022/01/11 08:04:04;;;;;;;12.98;8.23;;;;;;;25.31;27.88;97904.81;4932481;29;20505;-33
2022/01/11 08:06:38;;;;;;;13.90;8.30;;;;;;;25.28;27.99;97904.91;4926538;28;20043;-31
2022/01/11 08:09:51;;;;;;;14.23;8.48;;;;;;;25.25;27.63;97904.97;4928843;29;20039;-29
2022/01/11 08:12:28;;;;;;;12.70;8.43;;;;;;;25.24;27.74;97913.78;4937015;28;20043;-31
2022/01/11 08:15:05;;;;;;;13.02;8.55;;;;;;;25.23;27.63;97916.44;4930910;29;20054;-29
2022/01/11 08:18:15;;;;;;;13.68;8.45;;;;;;;25.21;27.58;97919.16;4931004;29;20035;-31
2022/01/11 08:20:48;;;;;;;14.98;8.52;;;;;;;25.19;27.58;97920.94;4846816;29;20260;-31
2022/01/11 08:23:46;;;;;;;11.95;8.25;;;;;;;25.17;27.56;97917.53;4848738;29;20069;-30
2022/01/11 08:26:46;;;;;;;16.25;11.30;;;;;;;25.13;27.42;97922.00;4874886;29;20051;-29
2022/01/11 08:29:52;;;;;;;;;;;;;;;;;;;;;
2022/01/11 08:32:34;;;;;;;12.30;5.43;;;;;;;25.14;28.36;97923.69;4930522;28;20027;-30
2022/01/11 08:35:20;;;;;;;8.38;4.97;;;;;;;25.17;28.68;97928.03;4931363;29;20489;-31
2022/01/11 08:38:18;;;;;;;7.47;4.43;;;;;;;25.19;28.82;97931.44;4930959;28;20560;-30
2022/01/11 08:41:07;;;;;;;8.60;4.68;;;;;;;25.23;29.12;97932.19;4910384;29;20121;-30
2022/01/11 08:44:27;;;;;;;8.90;4.60;;;;;;;25.24;29.35;97934.75;4936559;28;20035;-30
2022/01/11 08:47:30;;;;;;;7.97;4.10;;;;;;;25.27;29.29;97934.66;4868036;29;20081;-29
2022/01/11 08:49:57;;;;;;;7.50;4.60;;;;;;;25.30;29.66;97934.56;4888779;28;20046;-29
2022/01/11 08:52:49;;;;;;;9.27;4.40;;;;;;;25.34;29.60;97940.56;4916005;28;20164;-29
2022/01/11 08:56:15;;;;;;;12.15;4.78;;;;;;;25.37;29.75;97934.34;4881225;28;20047;-29
2022/01/11 08:58:52;;;;;;;6.43;4.30;;;;;;;25.41;29.72;97943.84;4841615;29;20033;-29
2022/01/11 09:01:20;;;;;;;8.25;4.32;;;;;;;25.42;29.89;97943.81;4843663;29;20201;-30
2022/01/11 09:04:10;;;;;;;10.95;4.25;;;;;;;25.45;29.98;97948.09;4875386;28;20739;-29
2022/01/11 09:06:49;;;;;;;5.88;3.97;;;;;;;25.47;29.97;97950.66;4931072;28;20061;-30
2022/01/11 09:09:35;;;;;;;7.60;4.70;;;;;;;25.48;29.89;97948.00;4932664;29;20119;-28
2022/01/11 09:12:50;;;;;;;8.32;4.68;;;;;;;25.49;30.10;97948.84;4916996;29;20126;-30
2022/01/11 09:15:50;;;;;;;8.70;4.72;;;;;;;25.52;29.87;97951.38;4930586;28;20042;-30
2022/01/11 09:18:54;;;;;;;29.42;12.98;;;;;;;25.45;27.06;97956.81;4836669;29;20081;-28
2022/01/11 09:24:29;;;;;;;26.13;14.23;;;;;;;25.01;24.11;97965.22;4933829;28;20039;-28
2022/01/11 09:33:40;;;;;;;12.10;8.75;;;;;;;24.59;25.88;97963.81;4934420;28;20038;-28
2022/01/11 09:36:23;;;;;;;13.65;8.27;;;;;;;24.57;26.10;97964.75;4932331;29;20134;-30
2022/01/11 09:39:15;;;;;;;14.20;7.97;;;;;;;24.59;26.58;97962.97;4916301;29;20027;-30
2022/01/11 09:42:05;;;;;;;11.57;6.68;;;;;;;24.59;26.80;97958.56;4925283;28;20035;-28
2022/01/11 09:44:39;;;;;;;15.07;6.63;;;;;;;24.64;26.89;97961.06;4927993;28;20047;-28
2022/01/11 09:50:28;;;;;;;12.55;5.85;;;;;;;24.73;27.20;97975.66;4877271;29;20052;-29
2022/01/11 09:53:13;;;;;;;13.85;5.50;;;;;;;24.77;27.48;97966.78;4895214;29;20039;-28
2022/01/11 09:56:01;;;;;;;9.75;5.30;;;;;;;24.79;27.71;97962.38;4912446;28;20045;-31
2022/01/11 09:58:59;;;;;;;13.70;5.90;;;;;;;24.84;27.77;97957.88;4931463;28;20035;-29
2022/01/11 10:01:38;;;;;;;19.33;6.10;;;;;;;24.87;27.89;97960.38;4932738;28;20126;-29
2022/01/11 10:05:01;;;;;;;27.00;5.93;;;;;;;24.90;27.79;97962.09;4930729;28;20517;-28
2022/01/11 10:07:33;;;;;;;19.83;5.57;;;;;;;24.94;27.97;97974.16;4926798;29;20129;-28
2022/01/11 10:10:07;;;;;;;18.95;5.72;;;;;;;24.97;27.97;97968.00;4931352;28;20035;-30
2022/01/11 10:13:03;;;;;;;17.23;6.35;;;;;;;24.99;28.06;97972.28;4935176;29;20110;-29
2022/01/11 10:15:57;;;;;;;29.48;7.45;;;;;;;25.02;28.17;97976.56;4943040;29;20045;-31
2022/01/11 10:18:50;;;;;;;24.70;7.15;;;;;;;25.04;28.13;97970.38;4922319;29;20043;-29
2022/01/11 10:21:57;;;;;;;22.05;7.07;;;;;;;25.07;28.33;97968.53;4940715;28;20077;-29
2022/01/11 10:24:47;;;;;;;19.15;7.05;;;;;;;25.10;28.13;97971.94;4942238;29;20027;-30
2022/01/11 10:27:35;;;;;;;25.80;7.07;;;;;;;25.12;28.32;97967.50;4934215;28;20072;-30
2022/01/11 10:30:25;;;;;;;26.77;6.88;;;;;;;25.14;28.19;97972.69;4940953;28;20039;-28
2022/01/11 10:33:06;;;;;;;15.55;6.57;;;;;;;25.17;28.45;97967.38;4942111;28;20031;-29
2022/01/11 10:35:42;;;;;;;18.27;6.47;;;;;;;25.18;28.47;97966.44;4921005;29;20179;-29
2022/01/11 10:38:07;;;;;;;14.63;6.13;;;;;;;25.19;28.46;97962.91;4907795;29;20033;-29
2022/01/11 10:40:53;;;;;;;13.35;5.40;;;;;;;25.21;28.59;97961.13;4906738;29;20137;-28
2022/01/11 10:43:22;;;;;;;14.85;6.00;;;;;;;25.24;28.59;97962.78;4939975;28;20023;-26
2022/01/11 10:46:02;;;;;;;15.65;5.60;;;;;;;25.25;28.64;97965.31;4940793;29;20461;-31
2022/01/11 10:48:45;;;;;;;13.23;5.35;;;;;;;25.27;28.70;97965.28;4937184;28;20058;-28
2022/01/11 10:51:22;;;;;;;14.82;5.57;;;;;;;25.29;28.73;97966.09;4940639;28;20061;-29
2022/01/11 10:54:06;;;;;;;16.20;4.97;;;;;;;25.30;28.80;97966.06;4922843;29;20035;-28
2022/01/11 10:57:22;;;;;;;12.75;5.40;;;;;;;25.31;28.74;97970.41;4925819;29;20046;-26
2022/01/11 11:00:19;;;;;;;12.75;5.40;;;;;;;25.34;28.72;97958.06;4880298;29;20034;-29
2022/01/11 11:03:14;;;;;;;10.65;4.78;;;;;;;25.35;28.81;97963.28;4939306;28;20497;-30
2022/01/11 11:06:07;;;;;;;12.15;4.68;;;;;;;25.36;28.72;97962.34;4943280;29;20035;-33
2022/01/11 11:12:28;;;;;;;10.73;4.72;;;;;;;25.39;28.83;97958.78;4872371;29;20104;-32
2022/01/11 11:15:18;;;;;;;8.90;4.18;;;;;;;25.41;29.10;97962.22;4938244;28;20066;-33
2022/01/11 11:27:38;;;;;;;11.05;3.75;;;;;;;25.45;29.22;97969.91;4938204;29;20490;-31
2022/01/11 11:30:07;;;;;;;7.10;4.05;;;;;;;25.45;29.21;97963.84;4940305;28;20047;-30
2022/01/11 11:32:38;;;;;;;8.85;4.07;;;;;;;25.47;29.08;97969.03;4939977;28;20035;-30
2022/01/11 11:35:44;;;;;;;8.45;3.88;;;;;;;25.49;29.20;97964.59;4919078;29;20043;-30
2022/01/11 11:38:25;;;;;;;7.68;3.70;;;;;;;25.48;29.33;97955.88;4900114;29;20051;-31
2022/01/11 11:41:28;;;;;;;7.65;3.95;;;;;;;25.50;29.08;97964.53;4915274;29;20050;-30
2022/01/11 11:44:17;;;;;;;7.90;3.65;;;;;;;25.51;29.22;97957.53;4865389;29;20047;-30
2022/01/11 11:50:05;;;;;;;9.57;3.65;;;;;;;25.53;29.41;97956.56;4929067;29;20082;-28
2022/01/11 11:52:42;;;;;;;9.15;3.58;;;;;;;25.53;29.32;97953.94;4936704;28;20181;-28
2022/01/11 11:55:47;;;;;;;6.90;3.50;;;;;;;25.54;29.50;97955.66;4940718;29;20038;-30
2022/01/11 11:58:28;;;;;;;6.72;3.60;;;;;;;25.55;29.43;97959.97;4940554;29;20062;-31
2022/01/11 12:00:59;;;;;;;5.35;2.97;;;;;;;25.55;29.50;97948.66;4923814;29;20045;-29
2022/01/11 12:03:51;;;;;;;8.05;3.17;;;;;;;25.57;29.51;97947.72;4942012;29;20045;-29
2022/01/11 12:06:42;;;;;;;10.75;3.47;;;;;;;25.59;29.51;97950.25;4918320;29;20035;-28
2022/01/11 12:09:41;;;;;;;6.20;3.25;;;;;;;25.60;29.44;97953.75;4857792;29;20045;-30
2022/01/11 12:13:04;;;;;;;;;;;;;;;;;;;;;
2022/01/11 12:15:38;;;;;;;6.07;3.10;;;;;;;25.62;29.55;97947.53;4846539;29;20041;-30
2022/01/11 12:18:23;;;;;;;5.95;3.00;;;;;;;25.62;29.49;97949.31;4859545;29;20507;-31
2022/01/11 12:20:51;;;;;;;5.43;3.15;;;;;;;25.62;29.51;97944.06;4895745;29;20046;-30
2022/01/11 12:24:03;;;;;;;6.18;2.92;;;;;;;25.63;29.51;97940.53;4923876;29;20420;-28
2022/01/11 12:26:58;;;;;;;6.97;2.83;;;;;;;25.63;29.50;97936.13;4934560;28;20043;-28
2022/01/11 12:29:38;;;;;;;5.38;3.10;;;;;;;25.64;29.55;97942.25;4942448;29;20078;-28
2022/01/11 12:32:19;;;;;;;6.30;3.20;;;;;;;25.65;29.53;97939.56;4942516;28;20031;-28
2022/01/11 12:34:50;;;;;;;5.47;2.80;;;;;;;25.66;29.63;97936.03;4942859;29;20035;-29
2022/01/11 12:37:32;;;;;;;5.38;2.65;;;;;;;25.67;29.74;97937.72;4944437;29;20114;-31
2022/01/11 12:40:30;;;;;;;5.72;2.60;;;;;;;25.68;29.71;97941.22;4944380;29;20051;-29
2022/01/11 12:46:58;;;;;;;5.25;3.20;;;;;;;25.69;29.66;97928.06;4944424;29;20723;-29
2022/01/11 12:49:40;;;;;;;4.85;2.70;;;;;;;25.70;29.73;97931.53;4943845;29;20027;-28
2022/01/11 12:52:19;;;;;;;;;;;;;;;25.71;29.80;97928.00;4925024;29;20395;-29
2022/01/11 12:55:10;;;;;;;5.30;2.80;;;;;;;25.71;29.74;97928.00;4939555;28;19918;-29
2022/01/11 12:57:52;;;;;;;6.88;2.78;;;;;;;25.71;29.68;97930.63;4942321;29;20110;-29
2022/01/11 13:00:23;;;;;;;5.07;2.47;;;;;;;25.70;29.68;97932.38;4944734;29;20039;-29
2022/01/11 13:06:18;;;;;;;5.47;2.67;;;;;;;25.73;29.69;97927.97;4927896;29;20030;-31
2022/01/11 13:09:01;;;;;;;4.45;2.55;;;;;;;25.73;29.84;97923.53;4923893;29;20043;-29
2022/01/11 13:12:12;;;;;;;5.45;2.60;;;;;;;25.73;29.72;97926.16;4941692;28;20579;-29
2022/01/11 13:18:03;;;;;;;3.95;2.45;;;;;;;25.75;29.89;97932.25;4876701;29;20297;-31
2022/01/11 13:20:55;;;;;;;5.00;2.53;;;;;;;25.76;29.90;97926.06;4873749;29;20037;-28
2022/01/11 13:26:59;;;;;;;5.30;2.17;;;;;;;25.76;29.86;97923.44;4853439;29;20060;-29
2022/01/11 13:29:45;;;;;;;2.92;2.10;;;;;;;25.77;29.80;97921.66;4941636;28;20245;-29
2022/01/11 13:32:10;;;;;;;3.90;2.40;;;;;;;25.77;29.96;97925.16;4939768;28;20106;-29
2022/01/11 13:35:25;;;;;;;3.58;1.95;;;;;;;25.78;29.80;97921.59;4940912;28;20046;-29
2022/01/11 13:37:50;;;;;;;3.42;2.13;;;;;;;25.79;29.91;97925.09;4935827;28;20039;-29
2022/01/11 13:41:05;;;;;;;3.58;2.10;;;;;;;25.79;29.79;97930.34;4943321;29;20421;-28
2022/01/11 13:43:49;;;;;;;3.63;2.30;;;;;;;25.80;29.79;97932.06;4944433;29;20060;-29
2022/01/11 13:46:27;;;;;;;2.88;1.92;;;;;;;25.80;30.00;97932.94;4941189;29;20493;-30
2022/01/11 13:49:25;;;;;;;3.58;2.08;;;;;;;25.79;29.84;97928.59;4941476;29;20067;-29
2022/01/11 13:54:55;;;;;;;3.80;2.17;;;;;;;25.82;29.83;97940.75;4796809;29;20056;-27
2022/01/11 13:57:39;;;;;;;4.38;2.30;;;;;;;25.82;29.87;97944.22;4865053;29;20059;-28
2022/01/11 14:00:59;;;;;;;3.22;2.17;;;;;;;25.80;29.82;97946.06;4901636;28;20039;-35
2022/01/11 14:03:42;;;;;;;2.95;2.00;;;;;;;25.82;29.75;97948.63;4926161;29;20054;-30
2022/01/11 14:06:45;;;;;;;4.38;2.30;;;;;;;25.82;29.92;97941.59;4936534;29;20043;-30
2022/01/11 14:09:36;;;;;;;3.15;1.70;;;;;;;25.82;29.82;97943.38;4927816;28;20070;-31